createdAt,value
2023-07-08T00:00:00.493Z,94.84
2023-07-08T00:02:28.064Z,95.42
2023-07-08T00:04:55.595Z,95.94
2023-07-08T00:07:23.766Z,96.15
2023-07-08T00:09:52.576Z,96.71
2023-07-08T00:15:25.072Z,97.57
2023-07-08T00:17:52.614Z,97.72
2023-07-08T00:20:22.993Z,97.60
2023-07-08T00:22:51.898Z,97.43
2023-07-08T00:28:21.185Z,98.20
2023-07-08T00:30:49.069Z,97.91
2023-07-08T00:33:41.687Z,98.27
2023-07-08T00:36:13.946Z,97.74
2023-07-08T00:38:45.425Z,97.28
2023-07-08T00:41:14.720Z,95.86
2023-07-08T00:43:46.770Z,96.42
2023-07-08T00:46:24.762Z,96.58
2023-07-08T00:49:20.968Z,94.71
2023-07-08T00:51:48.485Z,94.71
2023-07-08T00:54:21.071Z,95.50
2023-07-08T00:56:51.264Z,95.50
2023-07-08T00:59:23.965Z,95.64
2023-07-08T01:01:52.010Z,94.67
2023-07-08T01:04:22.745Z,95.69
2023-07-08T01:06:58.073Z,96.84
2023-07-08T01:09:27.042Z,97.33
2023-07-08T01:11:55.058Z,97.89
2023-07-08T01:17:22.985Z,96.13
2023-07-08T01:19:52.189Z,96.26
2023-07-08T01:22:21.834Z,94.68
2023-07-08T01:24:49.400Z,94.32
2023-07-08T01:27:19.403Z,94.76
2023-07-08T01:29:47.804Z,95.54
2023-07-08T01:32:19.133Z,95.56
2023-07-08T01:35:00.753Z,95.43
2023-07-08T01:37:33.444Z,95.87
2023-07-08T01:40:16.338Z,96.28
2023-07-08T01:42:43.817Z,96.56
2023-07-08T01:45:13.061Z,95.51
2023-07-08T01:47:41.573Z,95.55
2023-07-08T01:50:09.947Z,95.51
2023-07-08T01:55:33.783Z,95.79
2023-07-08T01:58:01.292Z,96.48
2023-07-08T02:00:28.803Z,96.46
2023-07-08T02:02:56.735Z,96.49
2023-07-08T02:05:24.903Z,96.90
2023-07-08T02:07:52.458Z,96.04
2023-07-08T02:10:20.461Z,96.01
2023-07-08T02:15:52.713Z,96.16
2023-07-08T02:18:21.196Z,96.49
2023-07-08T02:20:48.978Z,96.93
2023-07-08T02:23:16.635Z,96.64
2023-07-08T02:25:52.376Z,95.37
2023-07-08T02:28:20.605Z,96.00
2023-07-08T02:30:48.203Z,96.70
2023-07-08T02:36:15.258Z,96.12
2023-07-08T02:38:42.741Z,96.35
2023-07-08T02:41:10.262Z,95.74
2023-07-08T02:43:37.727Z,96.71
2023-07-08T02:48:53.998Z,97.20
2023-07-08T02:51:22.874Z,95.75
2023-07-08T02:53:51.571Z,95.55
2023-07-08T02:56:19.086Z,95.38
2023-07-08T03:01:42.354Z,96.75
2023-07-08T03:04:13.876Z,96.76
2023-07-08T03:06:43.611Z,96.33
2023-07-08T03:09:13.131Z,96.88
2023-07-08T03:11:41.078Z,97.02
2023-07-08T03:14:10.089Z,97.11
2023-07-08T03:19:27.046Z,96.88
2023-07-08T03:21:56.170Z,96.77
2023-07-08T03:24:23.730Z,97.26
2023-07-08T03:26:55.146Z,97.33
2023-07-08T03:29:25.536Z,97.01
2023-07-08T03:31:53.366Z,96.55
2023-07-08T03:34:20.910Z,97.29
2023-07-08T03:36:50.529Z,97.67
2023-07-08T03:42:09.445Z,95.61
2023-07-08T03:44:36.962Z,95.38
2023-07-08T03:47:04.826Z,95.37
2023-07-08T03:49:32.670Z,96.03
2023-07-08T03:52:01.325Z,96.34
2023-07-08T03:54:28.821Z,96.57
2023-07-08T03:56:58.704Z,96.74
2023-07-08T04:02:27.282Z,96.05
2023-07-08T04:04:54.835Z,96.26
2023-07-08T04:10:21.209Z,96.72
2023-07-08T04:12:48.757Z,96.73
2023-07-08T04:17:56.649Z,96.44
2023-07-08T04:20:24.355Z,96.26
2023-07-08T04:22:52.081Z,96.12
2023-07-08T04:25:20.601Z,96.12
2023-07-08T04:27:48.096Z,96.03
2023-07-08T04:30:22.299Z,95.30
2023-07-08T04:32:51.673Z,95.34
2023-07-08T04:35:20.642Z,94.05
2023-07-08T04:37:48.491Z,93.14
2023-07-08T04:40:20.792Z,93.23
2023-07-08T04:42:48.746Z,93.29
2023-07-08T04:48:22.195Z,93.33
2023-07-08T04:50:52.237Z,93.40
2023-07-08T04:53:19.749Z,94.50
2023-07-08T04:55:50.617Z,93.65
2023-07-08T04:58:18.133Z,94.02
2023-07-08T05:01:09.836Z,93.27
2023-07-08T05:03:37.535Z,93.41
2023-07-08T05:06:06.845Z,93.41
2023-07-08T05:08:34.386Z,93.39
2023-07-08T05:14:06.003Z,92.53
2023-07-08T05:16:36.227Z,92.17
2023-07-08T05:19:03.818Z,91.54
2023-07-08T05:21:34.337Z,91.09
2023-07-08T05:27:00.713Z,90.43
2023-07-08T05:29:28.204Z,88.59
2023-07-08T05:31:55.733Z,86.59
2023-07-08T05:34:23.523Z,86.02
2023-07-08T05:36:52.371Z,85.54
2023-07-08T05:39:20.318Z,83.11
2023-07-08T05:44:35.998Z,78.37
2023-07-08T05:47:03.934Z,81.21
2023-07-08T05:49:31.447Z,81.00
2023-07-08T05:52:00.272Z,80.03
2023-07-08T05:54:27.826Z,77.83
2023-07-08T05:56:55.318Z,78.53
2023-07-08T05:59:22.793Z,74.03
2023-07-08T06:01:50.271Z,74.93
2023-07-08T06:04:17.862Z,72.64
2023-07-08T06:06:45.418Z,71.10
2023-07-08T06:12:09.929Z,65.85
2023-07-08T06:14:37.397Z,67.47
2023-07-08T06:17:05.217Z,65.81
2023-07-08T06:19:32.886Z,63.10
2023-07-08T06:22:19.649Z,64.43
2023-07-08T06:24:48.691Z,62.22
2023-07-08T06:27:17.556Z,58.89
2023-07-08T06:29:45.357Z,60.88
2023-07-08T06:32:12.884Z,60.22
2023-07-08T06:37:30.840Z,52.84
2023-07-08T06:39:58.314Z,52.02
2023-07-08T06:42:27.806Z,50.47
2023-07-08T06:45:04.197Z,48.25
2023-07-08T06:47:31.753Z,47.88
2023-07-08T06:49:59.880Z,47.88
2023-07-08T06:52:27.699Z,45.79
2023-07-08T06:54:55.207Z,43.56
2023-07-08T06:57:22.677Z,43.97
2023-07-08T06:59:51.575Z,44.37
2023-07-08T07:02:19.211Z,41.92
2023-07-08T07:04:47.143Z,43.02
2023-07-08T07:07:14.651Z,38.22
2023-07-08T07:09:42.211Z,39.91
2023-07-08T07:12:10.120Z,41.08
2023-07-08T07:17:42.757Z,36.45
2023-07-08T07:23:13.019Z,36.93
2023-07-08T07:25:40.519Z,35.54
2023-07-08T07:28:08.660Z,38.35
2023-07-08T07:30:36.411Z,35.70
2023-07-08T07:33:05.287Z,37.11
2023-07-08T07:35:32.868Z,36.75
2023-07-08T07:38:00.326Z,37.60
2023-07-08T07:40:27.859Z,36.37
2023-07-08T07:45:51.944Z,36.92
2023-07-08T07:48:21.077Z,35.15
2023-07-08T07:50:49.009Z,35.11
2023-07-08T07:53:16.777Z,37.51
2023-07-08T07:58:51.596Z,33.97
2023-07-08T08:01:20.868Z,35.31
2023-07-08T08:03:52.627Z,33.68
2023-07-08T08:06:20.191Z,36.07
2023-07-08T08:08:48.805Z,36.37
2023-07-08T08:11:16.568Z,33.62
2023-07-08T08:13:44.518Z,36.00
2023-07-08T08:16:12.058Z,36.65
2023-07-08T08:21:39.375Z,37.12
2023-07-08T08:26:10.322Z,38.58
2023-07-08T08:28:39.123Z,35.36
2023-07-08T08:31:06.746Z,34.86
2023-07-08T08:33:34.286Z,37.83
2023-07-08T08:36:02.013Z,37.11
2023-07-08T08:38:29.736Z,34.82
2023-07-08T08:40:57.233Z,37.78
2023-07-08T08:43:27.666Z,38.43
2023-07-08T08:46:00.052Z,35.61
2023-07-08T08:51:28.704Z,38.89
2023-07-08T08:53:58.339Z,36.14
2023-07-08T08:56:29.803Z,35.01
2023-07-08T08:59:02.133Z,37.96
2023-07-08T09:01:31.123Z,36.00
2023-07-08T09:07:02.641Z,37.35
2023-07-08T09:09:33.951Z,35.89
2023-07-08T09:12:05.900Z,37.07
2023-07-08T09:14:36.515Z,38.01
2023-07-08T09:17:17.195Z,35.30
2023-07-08T09:19:47.331Z,35.78
2023-07-08T09:22:18.281Z,35.86
2023-07-08T09:24:49.018Z,36.83
2023-07-08T09:27:17.199Z,36.45
2023-07-08T09:29:44.784Z,36.29
2023-07-08T09:34:12.192Z,35.03
2023-07-08T09:36:42.211Z,35.09
2023-07-08T09:39:14.309Z,30.13
2023-07-08T09:44:34.224Z,36.12
2023-07-08T09:47:01.803Z,36.26
2023-07-08T09:49:33.682Z,36.42
2023-07-08T09:52:01.612Z,34.29
2023-07-08T09:54:31.472Z,33.43
2023-07-08T09:57:01.559Z,36.94
2023-07-08T10:02:34.189Z,38.16
2023-07-08T10:05:14.418Z,39.66
2023-07-08T10:07:43.267Z,33.67
2023-07-08T10:10:15.606Z,34.68
2023-07-08T10:15:45.662Z,38.91
2023-07-08T10:18:16.368Z,36.17
2023-07-08T10:20:51.670Z,31.01
2023-07-08T10:23:24.874Z,35.74
2023-07-08T10:26:00.950Z,37.38
2023-07-08T10:28:35.579Z,36.25
2023-07-08T10:31:19.242Z,37.37
2023-07-08T10:33:59.260Z,38.65
2023-07-08T10:36:32.768Z,39.51
2023-07-08T10:39:16.920Z,37.39
2023-07-08T10:41:51.335Z,37.40
2023-07-08T10:47:14.725Z,32.18
2023-07-08T10:50:00.809Z,33.51
2023-07-08T10:52:47.856Z,33.34
2023-07-08T10:55:35.173Z,31.06
2023-07-08T10:58:19.373Z,29.17
2023-07-08T11:00:52.418Z,32.06
2023-07-08T11:06:03.214Z,32.75
2023-07-08T11:08:34.120Z,31.16
2023-07-08T11:11:14.638Z,32.59
2023-07-08T11:13:47.447Z,31.38
2023-07-08T11:16:17.786Z,32.47
2023-07-08T11:21:55.973Z,31.55
2023-07-08T11:24:30.425Z,32.05
2023-07-08T11:29:49.932Z,30.72
2023-07-08T11:32:20.064Z,31.81
2023-07-08T11:34:51.063Z,30.96
2023-07-08T11:37:19.774Z,31.76
2023-07-08T11:42:59.095Z,30.82
2023-07-08T11:45:32.737Z,30.34
2023-07-08T11:48:07.229Z,30.38
2023-07-08T11:50:38.632Z,31.59
2023-07-08T11:53:09.464Z,28.51
2023-07-08T11:55:39.458Z,31.25
2023-07-08T11:58:15.915Z,29.46
2023-07-08T12:00:43.417Z,31.08
2023-07-08T12:03:22.940Z,33.11
2023-07-08T12:05:51.933Z,32.84
2023-07-08T12:08:21.372Z,31.24
2023-07-08T12:10:50.790Z,31.69
2023-07-08T12:13:26.115Z,30.99
2023-07-08T12:15:55.023Z,31.11
2023-07-08T12:18:47.652Z,31.97
2023-07-08T12:21:15.200Z,31.29
2023-07-08T12:26:31.148Z,30.79
2023-07-08T12:28:59.969Z,29.37
2023-07-08T12:31:27.650Z,32.06
2023-07-08T12:33:56.243Z,32.17
2023-07-08T12:36:26.083Z,30.65
2023-07-08T12:39:18.879Z,30.53
2023-07-08T12:41:48.480Z,31.13
2023-07-08T12:47:07.207Z,31.53
2023-07-08T12:49:35.031Z,31.16
2023-07-08T12:52:02.506Z,30.95
2023-07-08T12:54:31.414Z,31.84
2023-07-08T12:56:59.048Z,32.80
2023-07-08T12:59:27.037Z,32.03
2023-07-08T13:01:54.904Z,32.07
2023-07-08T13:04:24.569Z,29.82
2023-07-08T13:06:52.152Z,31.13
2023-07-08T13:12:23.477Z,29.35
2023-07-08T13:14:51.155Z,31.58
2023-07-08T13:17:18.958Z,29.71
2023-07-08T13:19:47.904Z,30.54
2023-07-08T13:25:16.430Z,30.10
2023-07-08T13:27:44.166Z,29.79
2023-07-08T13:30:19.566Z,28.17
2023-07-08T13:32:50.449Z,31.12
2023-07-08T13:35:30.576Z,31.93
2023-07-08T13:37:58.370Z,29.34
2023-07-08T13:40:29.208Z,32.64
2023-07-08T13:42:56.813Z,29.98
2023-07-08T13:48:29.897Z,31.56
2023-07-08T13:51:03.559Z,33.61
2023-07-08T13:53:46.126Z,30.53
2023-07-08T13:56:17.077Z,32.35
2023-07-08T14:01:35.033Z,27.64
2023-07-08T14:04:03.767Z,28.31
2023-07-08T14:06:36.136Z,30.00
2023-07-08T14:09:14.477Z,31.43
2023-07-08T14:11:41.961Z,33.81
2023-07-08T14:14:09.853Z,31.95
2023-07-08T14:16:40.104Z,32.53
2023-07-08T14:19:09.974Z,32.96
2023-07-08T14:21:38.876Z,33.69
2023-07-08T14:27:17.613Z,29.81
2023-07-08T14:29:47.654Z,30.60
2023-07-08T14:32:17.174Z,31.56
2023-07-08T14:34:50.356Z,27.65
2023-07-08T14:37:19.601Z,29.09
2023-07-08T14:39:47.405Z,29.25
2023-07-08T14:42:18.307Z,30.69
2023-07-08T14:44:47.360Z,33.31
2023-07-08T14:47:17.524Z,33.28
2023-07-08T14:49:45.030Z,31.31
2023-07-08T14:52:12.634Z,31.04
2023-07-08T14:54:41.442Z,30.15
2023-07-08T14:57:09.700Z,34.44
2023-07-08T15:02:42.369Z,32.88
2023-07-08T15:05:15.642Z,32.93
2023-07-08T15:08:07.287Z,32.02
2023-07-08T15:10:36.796Z,33.26
2023-07-08T15:13:06.731Z,33.77
2023-07-08T15:15:36.928Z,34.18
2023-07-08T15:18:11.617Z,33.69
2023-07-08T15:20:39.298Z,33.23
2023-07-08T15:23:06.842Z,32.10
2023-07-08T15:25:36.203Z,30.88
2023-07-08T15:28:04.779Z,32.28
2023-07-08T15:30:32.953Z,33.07
2023-07-08T15:35:59.143Z,34.64
2023-07-08T15:38:26.840Z,36.67
2023-07-08T15:40:55.868Z,32.78
2023-07-08T15:43:23.369Z,33.51
2023-07-08T15:45:50.920Z,30.87
2023-07-08T15:48:20.084Z,32.96
2023-07-08T15:50:47.539Z,32.65
2023-07-08T15:53:16.296Z,35.08
2023-07-08T15:55:46.378Z,32.42
2023-07-08T15:58:24.096Z,33.89
2023-07-08T16:00:51.858Z,34.42
2023-07-08T16:03:24.771Z,34.76
2023-07-08T16:05:52.868Z,36.49
2023-07-08T16:08:20.782Z,36.54
2023-07-08T16:10:57.405Z,39.00
2023-07-08T16:13:29.143Z,38.44
2023-07-08T16:19:09.487Z,41.12
2023-07-08T16:24:49.128Z,41.62
2023-07-08T16:27:16.609Z,40.86
2023-07-08T16:29:45.449Z,39.39
2023-07-08T16:32:13.475Z,39.66
2023-07-08T16:34:40.985Z,40.02
2023-07-08T16:37:08.489Z,39.38
2023-07-08T16:39:35.944Z,39.49
2023-07-08T16:44:45.826Z,42.18
2023-07-08T16:47:13.514Z,39.03
2023-07-08T16:49:41.006Z,41.19
2023-07-08T16:52:14.133Z,43.15
2023-07-08T16:54:41.658Z,43.61
2023-07-08T16:57:11.696Z,45.24
2023-07-08T16:59:39.263Z,43.80
2023-07-08T17:02:13.540Z,44.19
2023-07-08T17:04:41.336Z,44.43
2023-07-08T17:07:10.921Z,44.46
2023-07-08T17:12:46.207Z,44.05
2023-07-08T17:18:22.328Z,43.26
2023-07-08T17:20:52.030Z,44.47
2023-07-08T17:26:23.446Z,41.43
2023-07-08T17:31:54.757Z,42.32
2023-07-08T17:34:25.409Z,45.02
2023-07-08T17:36:53.595Z,43.01
2023-07-08T17:39:21.729Z,43.32
2023-07-08T17:44:52.090Z,48.09
2023-07-08T17:47:19.707Z,45.62
2023-07-08T17:49:48.686Z,46.41
2023-07-08T17:52:16.154Z,48.74
2023-07-08T17:54:43.689Z,48.86
2023-07-08T17:57:11.194Z,47.29
2023-07-08T17:59:38.686Z,48.49
2023-07-08T18:02:15.459Z,49.25
2023-07-08T18:04:43.156Z,49.83
2023-07-08T18:07:11.954Z,49.22
2023-07-08T18:12:42.975Z,52.47
2023-07-08T18:15:18.937Z,51.28
2023-07-08T18:17:47.283Z,52.51
2023-07-08T18:20:14.841Z,53.57
2023-07-08T18:22:46.887Z,55.31
2023-07-08T18:25:16.688Z,55.43
2023-07-08T18:27:44.530Z,55.85
2023-07-08T18:30:14.162Z,53.70
2023-07-08T18:32:41.673Z,54.48
2023-07-08T18:35:16.144Z,54.58
2023-07-08T18:37:45.953Z,54.27
2023-07-08T18:40:15.101Z,54.55
2023-07-08T18:42:44.542Z,54.93
2023-07-08T18:45:18.616Z,55.54
2023-07-08T18:47:46.893Z,55.91
2023-07-08T18:50:14.730Z,57.56
2023-07-08T18:52:42.899Z,57.87
2023-07-08T18:55:15.900Z,59.67
2023-07-08T18:57:43.748Z,62.08
2023-07-08T19:00:26.829Z,62.66
2023-07-08T19:02:57.010Z,64.62
2023-07-08T19:05:24.684Z,65.53
2023-07-08T19:07:53.618Z,67.40
2023-07-08T19:10:27.717Z,67.75
2023-07-08T19:12:55.222Z,68.82
2023-07-08T19:15:25.059Z,68.65
2023-07-08T19:20:52.858Z,71.66
2023-07-08T19:23:21.930Z,70.49
2023-07-08T19:25:51.117Z,70.80
2023-07-08T19:28:19.053Z,71.29
2023-07-08T19:33:36.674Z,71.96
2023-07-08T19:36:06.508Z,73.35
2023-07-08T19:38:33.980Z,71.34
2023-07-08T19:41:02.820Z,70.91
2023-07-08T19:46:29.236Z,71.36
2023-07-08T19:48:56.757Z,73.67
2023-07-08T19:51:27.377Z,75.14
2023-07-08T19:53:54.861Z,75.00
2023-07-08T19:56:23.729Z,74.96
2023-07-08T19:58:51.635Z,74.45
2023-07-08T20:01:21.633Z,75.48
2023-07-08T20:03:49.100Z,75.38
2023-07-08T20:06:20.158Z,75.36
2023-07-08T20:08:59.601Z,75.29
2023-07-08T20:11:29.416Z,76.81
2023-07-08T20:13:56.966Z,76.40
2023-07-08T20:16:25.867Z,76.67
2023-07-08T20:18:53.595Z,78.10
2023-07-08T20:21:21.132Z,77.76
2023-07-08T20:23:48.747Z,78.24
2023-07-08T20:29:29.526Z,78.54
2023-07-08T20:34:59.131Z,77.49
2023-07-08T20:37:26.784Z,77.45
2023-07-08T20:39:54.292Z,78.13
2023-07-08T20:42:21.774Z,77.58
2023-07-08T20:44:50.630Z,78.83
2023-07-08T20:47:18.161Z,80.01
2023-07-08T20:49:45.835Z,80.82
2023-07-08T20:52:14.210Z,80.65
2023-07-08T20:54:41.725Z,78.82
2023-07-08T20:57:12.394Z,78.61
2023-07-08T20:59:40.169Z,78.28
2023-07-08T21:02:23.530Z,77.76
2023-07-08T21:04:51.384Z,77.57
2023-07-08T21:07:19.421Z,77.80
2023-07-08T21:09:46.939Z,78.02
2023-07-08T21:12:15.046Z,78.42
2023-07-08T21:14:42.803Z,78.29
2023-07-08T21:17:16.260Z,78.85
2023-07-08T21:22:43.742Z,79.67
2023-07-08T21:25:12.380Z,77.98
2023-07-08T21:27:40.315Z,78.08
2023-07-08T21:30:16.107Z,76.94
2023-07-08T21:32:45.181Z,77.31
2023-07-08T21:35:13.224Z,77.68
2023-07-08T21:37:48.119Z,76.72
2023-07-08T21:40:17.930Z,77.07
2023-07-08T21:42:45.719Z,77.20
2023-07-08T21:45:25.657Z,76.55
2023-07-08T21:47:53.180Z,76.91
2023-07-08T21:50:20.926Z,76.64
2023-07-08T21:52:49.742Z,77.86
2023-07-08T21:55:18.704Z,78.13
2023-07-08T21:57:47.238Z,78.40
2023-07-08T22:00:16.051Z,78.49
2023-07-08T22:02:47.793Z,78.18
2023-07-08T22:05:28.803Z,77.98
2023-07-08T22:07:57.799Z,78.46
2023-07-08T22:10:25.305Z,79.32
2023-07-08T22:12:53.143Z,80.53
2023-07-08T22:15:23.312Z,82.10
2023-07-08T22:17:52.470Z,81.73
2023-07-08T22:23:12.720Z,82.79
2023-07-08T22:25:40.190Z,83.51
2023-07-08T22:28:07.726Z,85.50
2023-07-08T22:30:35.213Z,86.82
2023-07-08T22:33:02.788Z,86.78
2023-07-08T22:35:31.895Z,86.99
2023-07-08T22:40:59.436Z,79.43
2023-07-08T22:43:29.526Z,76.78
2023-07-08T22:46:22.233Z,79.49
2023-07-08T22:48:49.745Z,79.96
2023-07-08T22:54:20.245Z,82.40
2023-07-08T22:56:49.132Z,84.25
2023-07-08T22:59:16.681Z,83.82
2023-07-08T23:01:44.855Z,84.86
2023-07-08T23:07:01.222Z,84.45
2023-07-08T23:09:28.749Z,85.39
2023-07-08T23:11:57.695Z,85.53
2023-07-08T23:14:25.326Z,85.76
2023-07-08T23:19:51.157Z,87.23
2023-07-08T23:22:20.552Z,88.37
2023-07-08T23:24:48.112Z,87.94
2023-07-08T23:27:18.030Z,88.63
2023-07-08T23:29:45.608Z,87.96
2023-07-08T23:32:14.909Z,88.10
2023-07-08T23:34:42.575Z,88.13
2023-07-08T23:37:13.445Z,87.50
2023-07-08T23:39:41.401Z,86.94
2023-07-08T23:42:14.810Z,86.99
2023-07-08T23:44:43.617Z,87.05
2023-07-08T23:50:19.794Z,87.08
2023-07-08T23:52:47.924Z,88.47
2023-07-08T23:55:15.630Z,89.21
2023-07-08T23:57:43.942Z,88.91
